Latest METARs, TAFs and NOTAMs for EGSS


---------------------------------------------------------------------------
	(OBSERVATIONS)
EGSS 230150Z AUTO 20022KT 9999 BKN027/// BKN031/// //////TCU
    14/10 Q0987=
EGSS 230120Z AUTO 20027G39KT 9999 BKN029 14/09 Q0987=
EGSS 230050Z AUTO 20028KT 9999 BKN030 OVC037 15/09 Q0987=
EGSS 230020Z AUTO 20025KT 9999 BKN032 14/09 Q0987=
EGSS 222350Z AUTO 19026G39KT 9999 BKN031 15/09 Q0988=
EGSS 222320Z AUTO 19022G34KT 9999 BKN029 OVC036 14/10 Q0988=
---------------------------------------------------------------------------
	(FC)
Sorry, FC For EGSS Not Found
---------------------------------------------------------------------------
	(TERMINAL AREA FORECAST)
EGSS 222259Z 2300/2406 19022G33KT 9999 SCT025
    TEMPO 2300/2304 7000 SHRA
    PROB30 TEMPO 2300/2304 21032G43KT 4000 +SHRA BKN010
    BECMG 2304/2307 23014KT
    PROB30 TEMPO 2304/2307 27018G28KT 6000 SHRA BKN008
    TEMPO 2309/2315 24018G28KT
    BECMG 2318/2321 22004KT=
---------------------------------------------------------------------------
	(NOTAMS)


EGSS A3210/17 TRIGGER NOTAM - PERM AIRAC AIP AMDT 12/2017 WEF
    09 NOV 2017 STAR CHARTS - MULTIPLE CHANGES INITIAL APPROACH
    PROCEDURES CHARTS - NEW CHARTS. PAGE NUMBER. CLN VOR RECALIBRATED.
    CLN RADIAL. 09 NOV 00:00 2017 UNTIL 23 NOV 23:59 2017. CREATED:
    28 SEP 06:34 2017

EGSS A3556/17 NEW TAXIWAY INFRASTRUCTURE NORTHEAST OF TAXIWAY
    LINK DELTA, EXTENSION OF TAXIWAY HOTEL BETWEEN LINK DELTA
    AND NEW LINK ECHO FEEDING APRON ECHO. 26 OCT 11:44 2017 UNTIL
    PERM. CREATED: 26 OCT 11:46 2017

EGSS A3894/17 TWY JULIET CLOSED BETWEEN TWY LINK MIKE AND TWY
    LINK LIMA. ACCESS TO THE COMPASS BASE WILL BE RESTRICTED
    TO TOWED MOVEMENTS ONLY WITH A RANGER ESCORT. 22 NOV 11:00
    2017 UNTIL 08 DEC 18:00 2017. CREATED: 22 NOV 11:21 2017

EGSS H6559/17 UNMANNED CAPTIVE BALLOON IN THE THAMES VALLEY AVOIDANCE
    AREA WI 1NM RADIUS OF PSN 514705N 0000639E (HARLOW, ESSEX)
    MAX HEIGHT 200FT AGL. 17/10/042/LFTP. SFC - 343FT AMSL, OCT
    27-31 0600-1730, NOV 01-30 0700-1630, DEC 01-31 0700-1600,
    JAN 01-25 0700-1630, 27 OCT 06:00 2017 UNTIL 25 JAN 16:30
    2018. CREATED: 19 OCT 11:47 2017

EGSS V0263/17 [US DOD PROCEDURAL NOTAM] STANDARD INSTRUMENT ARRIVAL
    (STAR) NOT AUTHORIZED ABBOT A, D, E, F ARRIVAL. 18 AUG 10:47
    2017 UNTIL 31 DEC 23:59 2017. CREATED: 18 AUG 10:47 2017

EGSS V0265/17 [US DOD PROCEDURAL NOTAM] STANDARD INSTRUMENT ARRIVAL
    (STAR) NOT AUTHORIZED LOREL B, C, L, M, N, P, S F ARRIVAL.
    18 AUG 10:53 2017 UNTIL 31 DEC 23:59 2017. CREATED: 18 AUG
    10:53 2017

EGSS V0267/17 [US DOD PROCEDURAL NOTAM] STANDARD INSTRUMENT ARRIVAL
    (STAR) NOT AUTHORIZED LOREL/ASKEY (NORTH) ARRIVAL. 18 AUG
    10:54 2017 UNTIL 31 DEC 23:59 2017. CREATED: 18 AUG 10:54
    2017

EGSS V0338/17 [US DOD PROCEDURAL NOTAM] INSTRUMENT APPROACH PROCEDURE
    NOT AUTHORIZED ILS/DME RWY 22 (CAT II) UNUSABLE UNTIL PERMANENT.
    12 OCT 14:21 2017 UNTIL 07 DEC 00:01 2017. CREATED: 12 OCT
    14:22 2017

EGSS V0339/17 [US DOD PROCEDURAL NOTAM] INSTRUMENT APPROACH PROCEDURE
    NOT AUTHORIZED ILS/DME RWY 04 (CAT II) UNUSABLE UNTIL PERMANENT.
    12 OCT 14:23 2017 UNTIL 07 DEC 00:01 2017. CREATED: 12 OCT
    14:23 2017

EGSS V0350/17 [US DOD PROCEDURAL NOTAM] STANDARD INSTRUMENT ARRIVAL
    (STAR) NOT AUTHORIZED LOREL/ASKEY Q ARRIVAL NOT AUTHORIZED
    UNTIL FURTHER NOTICE. 19 OCT 12:28 2017 UNTIL 31 DEC 23:59
    2017. CREATED: 19 OCT 12:28 2017

EGSS V0351/17 [US DOD PROCEDURAL NOTAM] STANDARD INSTRUMENT ARRIVAL
    (STAR) NOT AUTHORIZED CASEY D, CASEY E, & CASEY F NOT AUTHORIZED
    UNTIL FURTHER NOTICE. 19 OCT 12:41 2017 UNTIL 31 DEC 23:59
    2017. CREATED: 19 OCT 12:41 2017

---------------------------------------------------------------------------